sensor_id;sensor_type;location;lat;lon;timestamp;P1;durP1;ratioP1;P2;durP2;ratioP2
35110;SDS011;21290;50.158;8.658;2024-01-15T00:02:16;31.27;;;13.20;;
35110;SDS011;21290;50.158;8.658;2024-01-15T00:04:43;28.37;;;12.43;;
35110;SDS011;21290;50.158;8.658;2024-01-15T00:07:10;28.27;;;12.60;;
35110;SDS011;21290;50.158;8.658;2024-01-15T00:09:36;31.57;;;13.40;;
35110;SDS011;21290;50.158;8.658;2024-01-15T00:12:03;32.50;;;14.67;;
35110;SDS011;21290;50.158;8.658;2024-01-15T00:14:30;35.37;;;13.40;;
35110;SDS011;21290;50.158;8.658;2024-01-15T00:16:57;31.43;;;13.33;;
35110;SDS011;21290;50.158;8.658;2024-01-15T00:19:24;33.63;;;13.80;;
35110;SDS011;21290;50.158;8.658;2024-01-15T00:21:51;31.17;;;13.50;;
35110;SDS011;21290;50.158;8.658;2024-01-15T00:24:17;33.87;;;14.03;;
35110;SDS011;21290;50.158;8.658;2024-01-15T00:26:44;35.20;;;14.90;;
35110;SDS011;21290;50.158;8.658;2024-01-15T00:29:11;33.20;;;13.77;;
35110;SDS011;21290;50.158;8.658;2024-01-15T00:31:37;31.77;;;13.33;;
35110;SDS011;21290;50.158;8.658;2024-01-15T00:34:04;34.07;;;14.53;;
35110;SDS011;21290;50.158;8.658;2024-01-15T00:36:31;30.60;;;13.47;;
35110;SDS011;21290;50.158;8.658;2024-01-15T00:38:58;33.67;;;14.27;;
35110;SDS011;21290;50.158;8.658;2024-01-15T00:41:25;32.33;;;13.70;;
35110;SDS011;21290;50.158;8.658;2024-01-15T00:43:53;22.63;;;8.77;;
35110;SDS011;21290;50.158;8.658;2024-01-15T00:46:20;27.23;;;12.00;;
35110;SDS011;21290;50.158;8.658;2024-01-15T00:48:47;31.43;;;13.77;;
35110;SDS011;21290;50.158;8.658;2024-01-15T00:51:14;28.37;;;12.40;;
35110;SDS011;21290;50.158;8.658;2024-01-15T00:53:40;35.83;;;15.37;;
35110;SDS011;21290;50.158;8.658;2024-01-15T00:56:07;31.63;;;14.53;;
35110;SDS011;21290;50.158;8.658;2024-01-15T00:58:34;30.90;;;13.07;;
35110;SDS011;21290;50.158;8.658;2024-01-15T01:01:00;33.33;;;13.50;;
35110;SDS011;21290;50.158;8.658;2024-01-15T01:03:27;33.77;;;13.67;;
35110;SDS011;21290;50.158;8.658;2024-01-15T01:05:54;30.07;;;13.40;;
35110;SDS011;21290;50.158;8.658;2024-01-15T01:08:20;33.40;;;12.97;;
35110;SDS011;21290;50.158;8.658;2024-01-15T01:10:47;37.07;;;13.43;;
35110;SDS011;21290;50.158;8.658;2024-01-15T01:13:14;33.93;;;14.60;;
35110;SDS011;21290;50.158;8.658;2024-01-15T01:15:40;27.47;;;11.07;;
35110;SDS011;21290;50.158;8.658;2024-01-15T01:18:07;31.30;;;13.67;;
35110;SDS011;21290;50.158;8.658;2024-01-15T01:20:34;38.17;;;15.13;;
35110;SDS011;21290;50.158;8.658;2024-01-15T01:23:01;27.67;;;12.20;;
35110;SDS011;21290;50.158;8.658;2024-01-15T01:25:27;27.37;;;12.53;;
35110;SDS011;21290;50.158;8.658;2024-01-15T01:27:54;28.60;;;11.50;;
35110;SDS011;21290;50.158;8.658;2024-01-15T01:30:20;41.57;;;14.90;;
35110;SDS011;21290;50.158;8.658;2024-01-15T01:32:47;35.93;;;14.13;;
35110;SDS011;21290;50.158;8.658;2024-01-15T01:35:14;28.67;;;11.97;;
35110;SDS011;21290;50.158;8.658;2024-01-15T01:37:40;40.37;;;14.73;;
35110;SDS011;21290;50.158;8.658;2024-01-15T01:40:07;34.47;;;14.07;;
35110;SDS011;21290;50.158;8.658;2024-01-15T01:42:34;34.07;;;12.20;;
35110;SDS011;21290;50.158;8.658;2024-01-15T01:45:01;31.43;;;13.33;;
35110;SDS011;21290;50.158;8.658;2024-01-15T01:47:28;35.00;;;12.07;;
35110;SDS011;21290;50.158;8.658;2024-01-15T01:49:55;34.13;;;14.30;;
35110;SDS011;21290;50.158;8.658;2024-01-15T01:52:22;30.27;;;13.57;;
35110;SDS011;21290;50.158;8.658;2024-01-15T01:54:49;32.30;;;13.13;;
35110;SDS011;21290;50.158;8.658;2024-01-15T01:57:17;27.70;;;11.90;;
35110;SDS011;21290;50.158;8.658;2024-01-15T01:59:44;33.73;;;13.73;;
35110;SDS011;21290;50.158;8.658;2024-01-15T02:02:13;32.70;;;14.25;;
35110;SDS011;21290;50.158;8.658;2024-01-15T02:04:40;29.43;;;12.40;;
35110;SDS011;21290;50.158;8.658;2024-01-15T02:07:06;36.40;;;13.90;;
35110;SDS011;21290;50.158;8.658;2024-01-15T02:09:33;36.50;;;14.23;;
35110;SDS011;21290;50.158;8.658;2024-01-15T02:12:00;29.80;;;13.80;;
35110;SDS011;21290;50.158;8.658;2024-01-15T02:14:26;26.97;;;11.13;;
35110;SDS011;21290;50.158;8.658;2024-01-15T02:16:53;34.17;;;14.50;;
35110;SDS011;21290;50.158;8.658;2024-01-15T02:19:20;23.83;;;9.93;;
35110;SDS011;21290;50.158;8.658;2024-01-15T02:21:47;26.47;;;11.80;;
35110;SDS011;21290;50.158;8.658;2024-01-15T02:24:14;28.83;;;12.47;;
35110;SDS011;21290;50.158;8.658;2024-01-15T02:26:40;30.70;;;13.13;;
35110;SDS011;21290;50.158;8.658;2024-01-15T02:29:08;27.03;;;11.47;;
35110;SDS011;21290;50.158;8.658;2024-01-15T02:31:35;24.10;;;11.60;;
35110;SDS011;21290;50.158;8.658;2024-01-15T02:34:03;26.83;;;11.20;;
35110;SDS011;21290;50.158;8.658;2024-01-15T02:36:30;27.93;;;12.07;;
35110;SDS011;21290;50.158;8.658;2024-01-15T02:38:56;36.27;;;13.70;;
35110;SDS011;21290;50.158;8.658;2024-01-15T02:41:23;31.83;;;14.03;;
35110;SDS011;21290;50.158;8.658;2024-01-15T02:43:49;21.33;;;8.93;;
35110;SDS011;21290;50.158;8.658;2024-01-15T02:46:16;26.67;;;11.53;;
35110;SDS011;21290;50.158;8.658;2024-01-15T02:48:43;32.20;;;13.97;;
35110;SDS011;21290;50.158;8.658;2024-01-15T02:51:10;27.90;;;13.43;;
35110;SDS011;21290;50.158;8.658;2024-01-15T02:53:36;30.83;;;13.87;;
35110;SDS011;21290;50.158;8.658;2024-01-15T02:56:03;30.20;;;12.83;;
35110;SDS011;21290;50.158;8.658;2024-01-15T02:58:30;27.13;;;10.93;;
35110;SDS011;21290;50.158;8.658;2024-01-15T03:00:57;32.27;;;13.87;;
35110;SDS011;21290;50.158;8.658;2024-01-15T03:03:24;35.60;;;13.47;;
35110;SDS011;21290;50.158;8.658;2024-01-15T03:05:51;37.27;;;13.70;;
35110;SDS011;21290;50.158;8.658;2024-01-15T03:08:18;36.10;;;14.30;;
35110;SDS011;21290;50.158;8.658;2024-01-15T03:10:45;30.23;;;11.63;;
35110;SDS011;21290;50.158;8.658;2024-01-15T03:13:11;31.87;;;12.83;;
35110;SDS011;21290;50.158;8.658;2024-01-15T03:15:39;31.80;;;13.13;;
35110;SDS011;21290;50.158;8.658;2024-01-15T03:18:05;28.57;;;11.97;;
35110;SDS011;21290;50.158;8.658;2024-01-15T03:20:32;37.80;;;13.67;;
35110;SDS011;21290;50.158;8.658;2024-01-15T03:22:59;33.90;;;13.57;;
35110;SDS011;21290;50.158;8.658;2024-01-15T03:25:26;34.27;;;13.80;;
35110;SDS011;21290;50.158;8.658;2024-01-15T03:27:52;29.20;;;14.27;;
35110;SDS011;21290;50.158;8.658;2024-01-15T03:30:19;29.17;;;13.17;;
35110;SDS011;21290;50.158;8.658;2024-01-15T03:32:46;24.90;;;11.10;;
35110;SDS011;21290;50.158;8.658;2024-01-15T03:35:13;27.83;;;12.17;;
35110;SDS011;21290;50.158;8.658;2024-01-15T03:37:40;34.73;;;13.30;;
35110;SDS011;21290;50.158;8.658;2024-01-15T03:40:07;28.53;;;12.53;;
35110;SDS011;21290;50.158;8.658;2024-01-15T03:42:34;30.30;;;13.53;;
35110;SDS011;21290;50.158;8.658;2024-01-15T03:45:01;33.03;;;14.03;;
35110;SDS011;21290;50.158;8.658;2024-01-15T03:47:28;32.60;;;13.10;;
35110;SDS011;21290;50.158;8.658;2024-01-15T03:49:54;34.77;;;14.87;;
35110;SDS011;21290;50.158;8.658;2024-01-15T03:52:21;32.57;;;13.17;;
35110;SDS011;21290;50.158;8.658;2024-01-15T03:54:47;32.77;;;14.03;;
35110;SDS011;21290;50.158;8.658;2024-01-15T03:57:14;31.47;;;13.63;;
35110;SDS011;21290;50.158;8.658;2024-01-15T03:59:41;37.10;;;15.13;;
35110;SDS011;21290;50.158;8.658;2024-01-15T04:02:08;32.50;;;13.47;;
35110;SDS011;21290;50.158;8.658;2024-01-15T04:04:34;34.30;;;14.00;;
35110;SDS011;21290;50.158;8.658;2024-01-15T04:07:01;36.53;;;13.50;;
35110;SDS011;21290;50.158;8.658;2024-01-15T04:09:28;33.20;;;14.20;;
35110;SDS011;21290;50.158;8.658;2024-01-15T04:11:54;27.97;;;12.53;;
35110;SDS011;21290;50.158;8.658;2024-01-15T04:14:21;32.07;;;13.87;;
35110;SDS011;21290;50.158;8.658;2024-01-15T04:16:47;27.13;;;12.43;;
35110;SDS011;21290;50.158;8.658;2024-01-15T04:19:14;22.07;;;10.63;;
35110;SDS011;21290;50.158;8.658;2024-01-15T04:21:41;33.40;;;12.73;;
35110;SDS011;21290;50.158;8.658;2024-01-15T04:24:07;30.07;;;12.43;;
35110;SDS011;21290;50.158;8.658;2024-01-15T04:26:34;31.83;;;12.07;;
35110;SDS011;21290;50.158;8.658;2024-01-15T04:29:01;30.20;;;12.60;;
35110;SDS011;21290;50.158;8.658;2024-01-15T04:31:27;28.23;;;11.97;;
35110;SDS011;21290;50.158;8.658;2024-01-15T04:33:54;30.97;;;12.93;;
35110;SDS011;21290;50.158;8.658;2024-01-15T04:36:21;27.23;;;12.17;;
35110;SDS011;21290;50.158;8.658;2024-01-15T04:38:48;24.27;;;12.30;;
35110;SDS011;21290;50.158;8.658;2024-01-15T04:41:15;28.27;;;12.20;;
35110;SDS011;21290;50.158;8.658;2024-01-15T04:43:43;31.90;;;13.10;;
35110;SDS011;21290;50.158;8.658;2024-01-15T04:46:09;27.57;;;11.80;;
35110;SDS011;21290;50.158;8.658;2024-01-15T04:48:36;27.20;;;12.03;;
35110;SDS011;21290;50.158;8.658;2024-01-15T04:51:04;31.07;;;12.40;;
35110;SDS011;21290;50.158;8.658;2024-01-15T04:53:32;19.70;;;8.43;;
35110;SDS011;21290;50.158;8.658;2024-01-15T04:56:00;28.17;;;12.10;;
35110;SDS011;21290;50.158;8.658;2024-01-15T04:58:27;26.40;;;10.77;;
35110;SDS011;21290;50.158;8.658;2024-01-15T05:00:53;26.30;;;11.13;;
35110;SDS011;21290;50.158;8.658;2024-01-15T05:03:20;28.70;;;11.63;;
35110;SDS011;21290;50.158;8.658;2024-01-15T05:05:47;26.23;;;11.27;;
35110;SDS011;21290;50.158;8.658;2024-01-15T05:08:14;26.53;;;11.93;;
35110;SDS011;21290;50.158;8.658;2024-01-15T05:10:40;34.87;;;12.77;;
35110;SDS011;21290;50.158;8.658;2024-01-15T05:13:07;22.07;;;11.30;;
35110;SDS011;21290;50.158;8.658;2024-01-15T05:15:33;31.23;;;12.07;;
35110;SDS011;21290;50.158;8.658;2024-01-15T05:18:00;30.23;;;11.03;;
35110;SDS011;21290;50.158;8.658;2024-01-15T05:20:27;27.23;;;12.03;;
35110;SDS011;21290;50.158;8.658;2024-01-15T05:22:54;26.37;;;10.60;;
35110;SDS011;21290;50.158;8.658;2024-01-15T05:25:20;30.43;;;12.30;;
35110;SDS011;21290;50.158;8.658;2024-01-15T05:27:47;27.60;;;11.60;;
35110;SDS011;21290;50.158;8.658;2024-01-15T05:30:14;31.13;;;11.87;;
35110;SDS011;21290;50.158;8.658;2024-01-15T05:32:41;29.70;;;11.50;;
35110;SDS011;21290;50.158;8.658;2024-01-15T05:35:07;28.03;;;11.60;;
35110;SDS011;21290;50.158;8.658;2024-01-15T05:37:34;24.07;;;10.53;;
35110;SDS011;21290;50.158;8.658;2024-01-15T05:40:00;21.57;;;10.70;;
35110;SDS011;21290;50.158;8.658;2024-01-15T05:42:27;28.50;;;11.07;;
35110;SDS011;21290;50.158;8.658;2024-01-15T05:47:25;30.63;;;11.77;;
35110;SDS011;21290;50.158;8.658;2024-01-15T05:49:52;29.00;;;12.97;;
35110;SDS011;21290;50.158;8.658;2024-01-15T05:52:19;35.20;;;12.37;;
35110;SDS011;21290;50.158;8.658;2024-01-15T05:54:47;29.37;;;12.13;;
35110;SDS011;21290;50.158;8.658;2024-01-15T05:57:14;34.30;;;13.20;;
35110;SDS011;21290;50.158;8.658;2024-01-15T05:59:40;29.27;;;12.80;;
35110;SDS011;21290;50.158;8.658;2024-01-15T06:02:07;35.07;;;14.87;;
35110;SDS011;21290;50.158;8.658;2024-01-15T06:04:34;27.90;;;12.37;;
35110;SDS011;21290;50.158;8.658;2024-01-15T06:07:01;26.37;;;12.03;;
35110;SDS011;21290;50.158;8.658;2024-01-15T06:09:27;41.87;;;13.23;;
35110;SDS011;21290;50.158;8.658;2024-01-15T06:11:55;34.03;;;12.33;;
35110;SDS011;21290;50.158;8.658;2024-01-15T06:14:21;31.30;;;12.53;;
35110;SDS011;21290;50.158;8.658;2024-01-15T06:16:48;30.67;;;12.73;;
35110;SDS011;21290;50.158;8.658;2024-01-15T06:19:15;33.47;;;12.93;;
35110;SDS011;21290;50.158;8.658;2024-01-15T06:21:42;30.33;;;12.33;;
35110;SDS011;21290;50.158;8.658;2024-01-15T06:24:08;34.23;;;13.87;;
35110;SDS011;21290;50.158;8.658;2024-01-15T06:26:36;34.20;;;13.57;;
35110;SDS011;21290;50.158;8.658;2024-01-15T06:29:03;33.30;;;12.77;;
35110;SDS011;21290;50.158;8.658;2024-01-15T06:31:29;30.33;;;13.53;;
35110;SDS011;21290;50.158;8.658;2024-01-15T06:33:56;29.00;;;12.73;;
35110;SDS011;21290;50.158;8.658;2024-01-15T06:36:24;27.73;;;11.93;;
35110;SDS011;21290;50.158;8.658;2024-01-15T06:38:50;30.03;;;12.87;;
35110;SDS011;21290;50.158;8.658;2024-01-15T06:41:17;28.93;;;12.63;;
35110;SDS011;21290;50.158;8.658;2024-01-15T06:43:44;31.33;;;13.13;;
35110;SDS011;21290;50.158;8.658;2024-01-15T06:46:10;33.03;;;13.27;;
35110;SDS011;21290;50.158;8.658;2024-01-15T06:48:37;36.47;;;13.73;;
35110;SDS011;21290;50.158;8.658;2024-01-15T06:51:04;34.00;;;15.17;;
35110;SDS011;21290;50.158;8.658;2024-01-15T06:53:30;35.67;;;15.40;;
35110;SDS011;21290;50.158;8.658;2024-01-15T06:55:57;36.60;;;13.80;;
35110;SDS011;21290;50.158;8.658;2024-01-15T06:58:24;41.43;;;14.60;;
35110;SDS011;21290;50.158;8.658;2024-01-15T07:00:50;30.83;;;13.90;;
35110;SDS011;21290;50.158;8.658;2024-01-15T07:03:17;36.37;;;14.77;;
35110;SDS011;21290;50.158;8.658;2024-01-15T07:05:44;33.70;;;13.80;;
35110;SDS011;21290;50.158;8.658;2024-01-15T07:08:11;40.27;;;15.67;;
35110;SDS011;21290;50.158;8.658;2024-01-15T07:10:37;37.43;;;14.80;;
35110;SDS011;21290;50.158;8.658;2024-01-15T07:13:04;35.27;;;14.67;;
35110;SDS011;21290;50.158;8.658;2024-01-15T07:15:31;35.67;;;15.20;;
35110;SDS011;21290;50.158;8.658;2024-01-15T07:17:58;33.07;;;14.17;;
35110;SDS011;21290;50.158;8.658;2024-01-15T07:20:25;35.57;;;14.83;;
35110;SDS011;21290;50.158;8.658;2024-01-15T07:22:51;31.93;;;13.77;;
35110;SDS011;21290;50.158;8.658;2024-01-15T07:25:18;31.57;;;14.07;;
35110;SDS011;21290;50.158;8.658;2024-01-15T07:27:44;34.20;;;14.93;;
35110;SDS011;21290;50.158;8.658;2024-01-15T07:30:12;32.20;;;12.90;;
35110;SDS011;21290;50.158;8.658;2024-01-15T07:32:40;31.43;;;14.10;;
35110;SDS011;21290;50.158;8.658;2024-01-15T07:35:07;33.57;;;14.20;;
35110;SDS011;21290;50.158;8.658;2024-01-15T07:37:33;30.60;;;13.93;;
35110;SDS011;21290;50.158;8.658;2024-01-15T07:40:00;32.10;;;14.60;;
35110;SDS011;21290;50.158;8.658;2024-01-15T07:42:27;29.83;;;14.00;;
35110;SDS011;21290;50.158;8.658;2024-01-15T07:44:54;33.17;;;14.07;;
35110;SDS011;21290;50.158;8.658;2024-01-15T07:47:20;32.73;;;14.57;;
35110;SDS011;21290;50.158;8.658;2024-01-15T07:49:47;31.97;;;13.43;;
35110;SDS011;21290;50.158;8.658;2024-01-15T07:52:14;30.67;;;14.30;;
35110;SDS011;21290;50.158;8.658;2024-01-15T07:54:41;30.57;;;12.67;;
35110;SDS011;21290;50.158;8.658;2024-01-15T07:57:08;28.17;;;13.20;;
35110;SDS011;21290;50.158;8.658;2024-01-15T07:59:35;30.57;;;12.43;;
35110;SDS011;21290;50.158;8.658;2024-01-15T08:02:01;32.40;;;13.97;;
35110;SDS011;21290;50.158;8.658;2024-01-15T08:04:28;35.10;;;13.67;;
35110;SDS011;21290;50.158;8.658;2024-01-15T08:06:55;34.73;;;14.40;;
35110;SDS011;21290;50.158;8.658;2024-01-15T08:09:23;50.70;;;20.53;;
35110;SDS011;21290;50.158;8.658;2024-01-15T08:11:50;32.67;;;15.13;;
35110;SDS011;21290;50.158;8.658;2024-01-15T08:14:17;43.63;;;18.77;;
35110;SDS011;21290;50.158;8.658;2024-01-15T08:16:44;34.07;;;14.83;;
35110;SDS011;21290;50.158;8.658;2024-01-15T08:19:11;36.90;;;15.27;;
35110;SDS011;21290;50.158;8.658;2024-01-15T08:21:38;36.90;;;14.03;;
35110;SDS011;21290;50.158;8.658;2024-01-15T08:24:05;28.60;;;12.97;;
35110;SDS011;21290;50.158;8.658;2024-01-15T08:26:32;34.70;;;16.80;;
35110;SDS011;21290;50.158;8.658;2024-01-15T08:28:59;35.40;;;13.10;;
35110;SDS011;21290;50.158;8.658;2024-01-15T08:31:25;31.27;;;14.07;;
35110;SDS011;21290;50.158;8.658;2024-01-15T08:33:53;33.13;;;14.37;;
35110;SDS011;21290;50.158;8.658;2024-01-15T08:36:20;31.00;;;13.87;;
35110;SDS011;21290;50.158;8.658;2024-01-15T08:38:47;34.40;;;15.67;;
35110;SDS011;21290;50.158;8.658;2024-01-15T08:41:14;33.53;;;14.50;;
35110;SDS011;21290;50.158;8.658;2024-01-15T08:43:40;30.43;;;14.03;;
35110;SDS011;21290;50.158;8.658;2024-01-15T08:46:07;31.63;;;13.57;;
35110;SDS011;21290;50.158;8.658;2024-01-15T08:48:34;34.87;;;15.00;;
35110;SDS011;21290;50.158;8.658;2024-01-15T08:51:01;29.67;;;14.17;;
35110;SDS011;21290;50.158;8.658;2024-01-15T08:53:27;33.33;;;14.93;;
35110;SDS011;21290;50.158;8.658;2024-01-15T08:55:54;36.03;;;14.60;;
35110;SDS011;21290;50.158;8.658;2024-01-15T08:58:21;32.90;;;14.83;;
35110;SDS011;21290;50.158;8.658;2024-01-15T09:00:49;32.70;;;14.67;;
35110;SDS011;21290;50.158;8.658;2024-01-15T09:03:16;27.60;;;13.57;;
35110;SDS011;21290;50.158;8.658;2024-01-15T09:05:43;34.97;;;14.30;;
35110;SDS011;21290;50.158;8.658;2024-01-15T09:08:10;30.13;;;13.90;;
35110;SDS011;21290;50.158;8.658;2024-01-15T09:10:37;28.03;;;12.83;;
35110;SDS011;21290;50.158;8.658;2024-01-15T09:13:03;32.13;;;14.00;;
35110;SDS011;21290;50.158;8.658;2024-01-15T09:15:30;32.80;;;13.95;;
35110;SDS011;21290;50.158;8.658;2024-01-15T09:17:57;29.47;;;13.70;;
35110;SDS011;21290;50.158;8.658;2024-01-15T09:20:25;25.93;;;11.60;;
35110;SDS011;21290;50.158;8.658;2024-01-15T09:22:53;24.67;;;12.55;;
35110;SDS011;21290;50.158;8.658;2024-01-15T09:25:20;23.65;;;11.35;;
35110;SDS011;21290;50.158;8.658;2024-01-15T09:27:46;25.98;;;12.25;;
35110;SDS011;21290;50.158;8.658;2024-01-15T09:30:13;23.42;;;12.07;;
35110;SDS011;21290;50.158;8.658;2024-01-15T09:32:40;19.65;;;11.43;;
35110;SDS011;21290;50.158;8.658;2024-01-15T09:35:07;22.27;;;12.02;;
35110;SDS011;21290;50.158;8.658;2024-01-15T09:37:34;20.90;;;11.35;;
35110;SDS011;21290;50.158;8.658;2024-01-15T09:40:13;20.13;;;11.10;;
35110;SDS011;21290;50.158;8.658;2024-01-15T09:42:42;19.10;;;10.70;;
35110;SDS011;21290;50.158;8.658;2024-01-15T09:45:09;19.05;;;11.57;;
35110;SDS011;21290;50.158;8.658;2024-01-15T09:47:36;19.85;;;11.35;;
35110;SDS011;21290;50.158;8.658;2024-01-15T09:50:07;19.25;;;11.05;;
35110;SDS011;21290;50.158;8.658;2024-01-15T09:52:35;22.52;;;11.82;;
35110;SDS011;21290;50.158;8.658;2024-01-15T09:55:03;20.17;;;11.70;;
35110;SDS011;21290;50.158;8.658;2024-01-15T09:59:59;19.83;;;11.95;;
35110;SDS011;21290;50.158;8.658;2024-01-15T10:02:30;18.38;;;11.27;;
35110;SDS011;21290;50.158;8.658;2024-01-15T10:04:57;18.10;;;11.30;;
35110;SDS011;21290;50.158;8.658;2024-01-15T10:07:24;19.75;;;11.00;;
35110;SDS011;21290;50.158;8.658;2024-01-15T10:09:52;15.23;;;9.03;;
35110;SDS011;21290;50.158;8.658;2024-01-15T10:12:20;18.08;;;10.95;;
35110;SDS011;21290;50.158;8.658;2024-01-15T10:14:50;19.83;;;11.82;;
35110;SDS011;21290;50.158;8.658;2024-01-15T10:17:17;17.17;;;10.43;;
35110;SDS011;21290;50.158;8.658;2024-01-15T10:19:47;21.13;;;11.15;;
35110;SDS011;21290;50.158;8.658;2024-01-15T10:22:16;20.98;;;11.25;;
35110;SDS011;21290;50.158;8.658;2024-01-15T10:24:43;22.55;;;11.48;;
35110;SDS011;21290;50.158;8.658;2024-01-15T10:27:11;21.02;;;11.15;;
35110;SDS011;21290;50.158;8.658;2024-01-15T10:29:38;18.50;;;10.55;;
35110;SDS011;21290;50.158;8.658;2024-01-15T10:32:08;20.63;;;11.38;;
35110;SDS011;21290;50.158;8.658;2024-01-15T10:34:39;20.45;;;10.90;;
35110;SDS011;21290;50.158;8.658;2024-01-15T10:37:08;22.17;;;11.02;;
35110;SDS011;21290;50.158;8.658;2024-01-15T10:39:35;21.02;;;11.30;;
35110;SDS011;21290;50.158;8.658;2024-01-15T10:42:03;21.23;;;11.80;;
35110;SDS011;21290;50.158;8.658;2024-01-15T10:44:30;19.45;;;10.75;;
35110;SDS011;21290;50.158;8.658;2024-01-15T10:46:57;21.23;;;10.95;;
35110;SDS011;21290;50.158;8.658;2024-01-15T10:49:24;16.63;;;10.20;;
35110;SDS011;21290;50.158;8.658;2024-01-15T10:51:58;19.45;;;11.35;;
35110;SDS011;21290;50.158;8.658;2024-01-15T10:54:26;22.20;;;10.02;;
35110;SDS011;21290;50.158;8.658;2024-01-15T10:56:54;21.83;;;11.95;;
35110;SDS011;21290;50.158;8.658;2024-01-15T10:59:23;22.50;;;11.18;;
35110;SDS011;21290;50.158;8.658;2024-01-15T11:01:50;20.85;;;11.93;;
35110;SDS011;21290;50.158;8.658;2024-01-15T11:04:21;19.80;;;10.68;;
35110;SDS011;21290;50.158;8.658;2024-01-15T11:06:50;18.08;;;10.13;;
35110;SDS011;21290;50.158;8.658;2024-01-15T11:09:20;20.55;;;11.32;;
35110;SDS011;21290;50.158;8.658;2024-01-15T11:11:46;17.48;;;10.00;;
35110;SDS011;21290;50.158;8.658;2024-01-15T11:14:33;19.40;;;10.63;;
35110;SDS011;21290;50.158;8.658;2024-01-15T11:17:00;19.48;;;10.68;;
35110;SDS011;21290;50.158;8.658;2024-01-15T11:24:55;17.38;;;10.32;;
35110;SDS011;21290;50.158;8.658;2024-01-15T11:27:39;18.08;;;10.88;;
35110;SDS011;21290;50.158;8.658;2024-01-15T11:30:08;17.15;;;9.93;;
35110;SDS011;21290;50.158;8.658;2024-01-15T11:32:37;18.42;;;10.07;;
35110;SDS011;21290;50.158;8.658;2024-01-15T11:35:07;16.80;;;9.48;;
35110;SDS011;21290;50.158;8.658;2024-01-15T11:40:18;18.95;;;10.98;;
35110;SDS011;21290;50.158;8.658;2024-01-15T11:42:46;11.57;;;7.23;;
35110;SDS011;21290;50.158;8.658;2024-01-15T11:45:14;18.90;;;9.55;;
35110;SDS011;21290;50.158;8.658;2024-01-15T11:47:52;18.42;;;10.13;;
35110;SDS011;21290;50.158;8.658;2024-01-15T11:50:30;16.58;;;9.02;;
35110;SDS011;21290;50.158;8.658;2024-01-15T11:53:01;15.65;;;9.95;;
35110;SDS011;21290;50.158;8.658;2024-01-15T11:55:37;20.67;;;11.95;;
35110;SDS011;21290;50.158;8.658;2024-01-15T11:58:09;18.40;;;10.05;;
35110;SDS011;21290;50.158;8.658;2024-01-15T12:00:43;18.70;;;10.10;;
35110;SDS011;21290;50.158;8.658;2024-01-15T12:03:13;17.10;;;10.13;;
35110;SDS011;21290;50.158;8.658;2024-01-15T12:05:40;16.13;;;9.82;;
35110;SDS011;21290;50.158;8.658;2024-01-15T12:08:08;17.38;;;10.25;;
35110;SDS011;21290;50.158;8.658;2024-01-15T12:10:37;20.80;;;10.52;;
35110;SDS011;21290;50.158;8.658;2024-01-15T12:13:10;15.13;;;9.48;;
35110;SDS011;21290;50.158;8.658;2024-01-15T12:15:39;20.10;;;9.80;;
35110;SDS011;21290;50.158;8.658;2024-01-15T12:18:08;17.33;;;9.48;;
35110;SDS011;21290;50.158;8.658;2024-01-15T12:20:36;16.67;;;9.02;;
35110;SDS011;21290;50.158;8.658;2024-01-15T12:23:03;16.77;;;9.63;;
35110;SDS011;21290;50.158;8.658;2024-01-15T12:25:33;14.55;;;8.38;;
35110;SDS011;21290;50.158;8.658;2024-01-15T12:28:00;16.02;;;9.60;;
35110;SDS011;21290;50.158;8.658;2024-01-15T12:30:28;18.58;;;9.50;;
35110;SDS011;21290;50.158;8.658;2024-01-15T12:32:57;15.68;;;9.02;;
35110;SDS011;21290;50.158;8.658;2024-01-15T12:35:24;16.58;;;9.40;;
35110;SDS011;21290;50.158;8.658;2024-01-15T12:37:52;17.50;;;9.30;;
35110;SDS011;21290;50.158;8.658;2024-01-15T12:40:21;16.23;;;8.52;;
35110;SDS011;21290;50.158;8.658;2024-01-15T12:42:49;12.00;;;6.73;;
35110;SDS011;21290;50.158;8.658;2024-01-15T12:45:16;15.88;;;8.23;;
35110;SDS011;21290;50.158;8.658;2024-01-15T12:47:44;14.95;;;8.43;;
35110;SDS011;21290;50.158;8.658;2024-01-15T12:50:11;14.82;;;8.45;;
35110;SDS011;21290;50.158;8.658;2024-01-15T12:52:45;14.00;;;7.88;;
35110;SDS011;21290;50.158;8.658;2024-01-15T12:55:13;13.48;;;8.38;;
35110;SDS011;21290;50.158;8.658;2024-01-15T12:57:40;14.10;;;7.95;;
35110;SDS011;21290;50.158;8.658;2024-01-15T13:00:07;14.07;;;7.70;;
35110;SDS011;21290;50.158;8.658;2024-01-15T13:02:38;14.23;;;8.15;;
35110;SDS011;21290;50.158;8.658;2024-01-15T13:05:09;15.32;;;8.20;;
35110;SDS011;21290;50.158;8.658;2024-01-15T13:07:41;11.10;;;7.32;;
35110;SDS011;21290;50.158;8.658;2024-01-15T13:10:08;12.20;;;7.40;;
35110;SDS011;21290;50.158;8.658;2024-01-15T13:12:36;12.35;;;7.63;;
35110;SDS011;21290;50.158;8.658;2024-01-15T13:15:04;12.10;;;7.13;;
35110;SDS011;21290;50.158;8.658;2024-01-15T13:17:31;11.10;;;7.15;;
35110;SDS011;21290;50.158;8.658;2024-01-15T13:19:58;11.80;;;6.90;;
35110;SDS011;21290;50.158;8.658;2024-01-15T13:22:26;10.52;;;6.13;;
35110;SDS011;21290;50.158;8.658;2024-01-15T13:24:59;8.55;;;5.60;;
35110;SDS011;21290;50.158;8.658;2024-01-15T13:27:26;10.23;;;6.43;;
35110;SDS011;21290;50.158;8.658;2024-01-15T13:29:53;12.77;;;6.90;;
35110;SDS011;21290;50.158;8.658;2024-01-15T13:32:27;10.32;;;6.35;;
35110;SDS011;21290;50.158;8.658;2024-01-15T13:34:55;11.90;;;7.50;;
35110;SDS011;21290;50.158;8.658;2024-01-15T13:37:23;12.73;;;6.28;;
35110;SDS011;21290;50.158;8.658;2024-01-15T13:39:50;11.57;;;6.72;;
35110;SDS011;21290;50.158;8.658;2024-01-15T13:42:18;10.00;;;5.78;;
35110;SDS011;21290;50.158;8.658;2024-01-15T13:44:47;11.80;;;6.13;;
35110;SDS011;21290;50.158;8.658;2024-01-15T13:47:14;10.93;;;6.05;;
35110;SDS011;21290;50.158;8.658;2024-01-15T13:49:41;8.50;;;5.03;;
35110;SDS011;21290;50.158;8.658;2024-01-15T13:52:07;8.48;;;5.35;;
35110;SDS011;21290;50.158;8.658;2024-01-15T13:54:34;7.95;;;5.00;;
35110;SDS011;21290;50.158;8.658;2024-01-15T13:57:15;7.40;;;4.50;;
35110;SDS011;21290;50.158;8.658;2024-01-15T13:59:42;11.00;;;4.68;;
35110;SDS011;21290;50.158;8.658;2024-01-15T14:02:08;6.90;;;4.05;;
35110;SDS011;21290;50.158;8.658;2024-01-15T14:04:36;8.02;;;4.70;;
35110;SDS011;21290;50.158;8.658;2024-01-15T14:07:04;7.53;;;4.13;;
35110;SDS011;21290;50.158;8.658;2024-01-15T14:09:31;7.28;;;3.90;;
35110;SDS011;21290;50.158;8.658;2024-01-15T14:11:58;6.40;;;4.05;;
35110;SDS011;21290;50.158;8.658;2024-01-15T14:14:25;7.18;;;3.90;;
35110;SDS011;21290;50.158;8.658;2024-01-15T14:16:52;7.28;;;4.40;;
35110;SDS011;21290;50.158;8.658;2024-01-15T14:19:18;8.30;;;3.40;;
35110;SDS011;21290;50.158;8.658;2024-01-15T14:21:47;6.97;;;4.07;;
35110;SDS011;21290;50.158;8.658;2024-01-15T14:24:13;8.55;;;3.70;;
35110;SDS011;21290;50.158;8.658;2024-01-15T14:26:40;6.45;;;3.42;;
35110;SDS011;21290;50.158;8.658;2024-01-15T14:29:07;7.40;;;3.08;;
35110;SDS011;21290;50.158;8.658;2024-01-15T14:31:34;8.52;;;4.10;;
35110;SDS011;21290;50.158;8.658;2024-01-15T14:34:01;11.93;;;4.57;;
35110;SDS011;21290;50.158;8.658;2024-01-15T14:36:29;11.55;;;5.28;;
35110;SDS011;21290;50.158;8.658;2024-01-15T14:38:56;9.38;;;4.20;;
35110;SDS011;21290;50.158;8.658;2024-01-15T14:41:23;9.30;;;3.70;;